This is the latest recevied weather packets stored in our database for station/object IW8PDD-3. If no packets are shown the sender has not sent any weather packets the latest 10 day(s).
| Time | Temp. | Humidity | Pressure | Rain* | Wind** | Luminosity | Snow |
|---|---|---|---|---|---|---|---|
| 1777844628 | 17.78° C | 51% | 1020.7 hPa | - | - | - | - |
| 1777843425 | 17.78° C | 52% | 1020.6 hPa | - | - | - | - |
| 1777842221 | 17.22° C | 51% | 1020.6 hPa | - | - | - | - |
| 1777841018 | 17.78° C | 52% | 1020.5 hPa | - | - | - | - |
| 1777839814 | 17.78° C | 54% | 1020.5 hPa | - | - | - | - |
| 1777838611 | 18.33° C | 55% | 1020.6 hPa | - | - | - | - |
| 1777837408 | 18.33° C | 55% | 1020.7 hPa | - | - | - | - |
| 1777836204 | 18.89° C | 54% | 1020.7 hPa | - | - | - | - |
| 1777835001 | 18.89° C | 54% | 1020.4 hPa | - | - | - | - |
| 1777833797 | 18.89° C | 54% | 1020.3 hPa | - | - | - | - |
| 1777832593 | 18.89° C | 53% | 1020.2 hPa | - | - | - | - |
| 1777831390 | 19.44° C | 51% | 1020 hPa | - | - | - | - |
| 1777830186 | 20° C | 51% | 1019.9 hPa | - | - | - | - |
| 1777828983 | 20.56° C | 50% | 1019.6 hPa | - | - | - | - |
| 1777827780 | 21.11° C | 49% | 1019.7 hPa | - | - | - | - |
| 1777826576 | 21.67° C | 48% | 1019.5 hPa | - | - | - | - |
| 1777825408 | 22.22° C | 47% | 1019.7 hPa | - | - | - | - |
| 1777825373 | 22.22° C | 47% | 1019.7 hPa | - | - | - | - |
| 1777824169 | 23.89° C | 45% | 1019.7 hPa | - | - | - | - |
| 1777822966 | 26.11° C | 43% | 1019.5 hPa | - | - | - | - |
| 1777821762 | 29.44° C | 39% | 1019.7 hPa | - | - | - | - |
| 1777820559 | 30.56° C | 40% | 1019.6 hPa | - | - | - | - |
| 1777819356 | 30° C | 42% | 1019.7 hPa | - | - | - | - |
| 1777818152 | 28.33° C | 45% | 1020 hPa | - | - | - | - |
| 1777816948 | 28.33° C | 46% | 1020 hPa | - | - | - | - |
* Rain since midnight (hover to see other rain measurements)
** Current wind speed in m/s (hover to see current wind gust speed)